Time;durP1;ratioP1;P1;durP2;ratioP2;P2;SDS_P1;SDS_P2;PMS_P1;PMS_P2;Temp;Humidity;BMP_temperature;BMP_pressure;BME280_temperature;BME280_humidity;BME280_pressure;Samples;Min_cycle;Max_cycle;Signal;HPM_P1;HPM_P2
2022/12/26 00:00:56;;;;;;;31.70;18.83;;;256.00;2252.80;;;;;;5053653;28;20109;-80
2022/12/26 00:03:22;;;;;;;34.63;19.55;;;231.30;2252.80;;;;;;5026645;28;20045;-79
2022/12/26 00:05:48;;;;;;;32.63;20.75;;;231.10;2252.80;;;;;;5056263;28;20117;-81
2022/12/26 00:08:14;;;;;;;27.67;19.30;;;231.10;2252.80;;;;;;5026033;28;20065;-80
2022/12/26 00:10:40;;;;;;;35.85;19.88;;;231.10;2252.80;;;;;;5028310;28;20496;-80
2022/12/26 00:13:06;;;;;;;35.53;20.67;;;231.10;2252.80;;;;;;5026909;28;20125;-81
2022/12/26 00:15:31;;;;;;;34.75;22.17;;;231.00;2252.80;;;;;;5056365;28;20032;-81
2022/12/26 00:17:57;;;;;;;36.03;22.23;;;230.90;2252.80;;;;;;5032894;28;20041;-80
2022/12/26 00:20:23;;;;;;;;;;;230.90;2252.80;;;;;;5030433;28;20025;-81
2022/12/26 00:22:48;;;;;;;42.42;22.90;;;230.90;2252.80;;;;;;5059740;28;20353;-81
2022/12/26 00:25:14;;;;;;;;;;;230.80;2252.80;;;;;;5035559;28;20057;-81
2022/12/26 00:27:39;;;;;;;44.10;22.52;;;230.80;2252.80;;;;;;5026399;28;19906;-80
2022/12/26 00:30:05;;;;;;;;;;;230.80;2252.80;;;;;;5028057;28;20040;-80
2022/12/26 00:32:31;;;;;;;41.20;23.33;;;230.90;2252.80;;;;;;5060124;28;20373;-81
2022/12/26 00:34:57;;;;;;;;;;;230.80;2252.80;;;;;;5031087;28;20099;-81
2022/12/26 00:37:22;;;;;;;41.28;23.92;;;230.90;2252.80;;;;;;5031535;28;19917;-81
2022/12/26 00:39:48;;;;;;;;;;;230.90;2252.80;;;;;;5022690;28;20026;-80
2022/12/26 00:42:14;;;;;;;48.05;27.20;;;231.00;2252.80;;;;;;5032196;28;19931;-81
2022/12/26 00:44:39;;;;;;;;;;;231.10;2252.80;;;;;;5030182;28;20079;-81
2022/12/26 00:47:05;;;;;;;40.25;24.45;;;231.20;2252.80;;;;;;5062634;28;19912;-79
2022/12/26 00:49:30;;;;;;;;;;;231.10;2252.80;;;;;;5032158;28;20076;-81
2022/12/26 00:51:56;;;;;;;42.00;26.77;;;231.20;2252.80;;;;;;5024478;28;19996;-80
2022/12/26 00:54:22;;;;;;;;;;;231.30;2252.80;;;;;;5025665;28;20494;-80
2022/12/26 00:56:47;;;;;;;48.88;28.15;;;231.30;2252.80;;;;;;5029882;28;19960;-81
2022/12/26 00:59:13;;;;;;;;;;;256.00;2252.80;;;;;;5032476;28;20026;-81
2022/12/26 01:01:39;;;;;;;45.00;26.05;;;231.20;2252.80;;;;;;5034451;28;19970;-81
2022/12/26 01:04:04;;;;;;;;;;;231.00;2252.80;;;;;;5029832;28;20505;-81
2022/12/26 01:06:30;;;;;;;42.47;25.27;;;231.00;2252.80;;;;;;5026196;28;19905;-81
2022/12/26 01:08:56;;;;;;;;;;;231.00;2252.80;;;;;;5029908;28;20505;-81
2022/12/26 01:11:39;;;;;;;42.88;26.33;;;231.00;2252.80;;;;;;5023379;28;19912;-80
2022/12/26 01:14:16;;;;;;;47.38;26.77;;;231.00;2252.80;;;;;;5054751;28;20033;-81
2022/12/26 01:16:44;;;;;;;45.97;28.15;;;231.00;2252.80;;;;;;5026316;28;20030;-81
2022/12/26 01:19:11;;;;;;;43.72;27.20;;;230.90;2252.80;;;;;;5027179;28;20025;-80
2022/12/26 01:21:37;;;;;;;38.90;24.13;;;230.90;2252.80;;;;;;5026841;28;20545;-80
2022/12/26 01:24:03;;;;;;;;;;;230.80;2252.80;;;;;;5027092;28;20029;-81
2022/12/26 01:26:29;;;;;;;43.72;25.13;;;230.60;2252.80;;;;;;5059219;28;19913;-80
2022/12/26 01:28:55;;;;;;;41.92;24.63;;;230.50;2252.80;;;;;;5018069;28;20034;-81
2022/12/26 01:31:21;;;;;;;;;;;230.50;2252.80;;;;;;5020222;28;20581;-80
2022/12/26 01:33:47;;;;;;;43.75;25.58;;;230.40;2252.80;;;;;;5057523;28;20007;-80
2022/12/26 01:36:13;;;;;;;;;;;205.70;2252.80;;;;;;5030278;28;20109;-80
2022/12/26 01:38:38;;;;;;;45.35;26.17;;;205.70;2252.80;;;;;;5057360;28;19917;-80
2022/12/26 01:41:16;;;;;;;;;;;205.70;2252.80;;;;;;5026740;28;20052;-80
2022/12/26 01:44:02;;;;;;;;;;;205.60;2252.80;;;;;;5030150;28;19909;-81
2022/12/26 01:46:41;;;;;;;46.75;26.60;;;205.60;2252.80;;;;;;5019647;28;19981;-81
2022/12/26 01:49:20;;;;;;;45.00;27.92;;;205.60;2252.80;;;;;;5023400;28;20025;-81
2022/12/26 01:51:53;;;;;;;45.97;28.10;;;205.60;2252.80;;;;;;5022239;28;20036;-81
2022/12/26 01:54:20;;;;;;;45.97;26.52;;;205.60;2252.80;;;;;;5030009;28;20046;-81
2022/12/26 01:56:47;;;;;;;47.17;29.38;;;205.50;2252.80;;;;;;5019062;28;20026;-81
2022/12/26 01:59:23;;;;;;;46.60;27.85;;;205.40;2252.80;;;;;;5056600;28;20045;-80
2022/12/26 02:01:52;;;;;;;42.72;26.67;;;205.40;2252.80;;;;;;5016090;28;20697;-80
2022/12/26 02:07:06;;;;;;;46.28;27.60;;;205.40;2252.80;;;;;;5023312;28;20093;-80
2022/12/26 02:09:32;;;;;;;44.45;27.10;;;205.40;2252.80;;;;;;5022762;28;20470;-81
2022/12/26 02:12:15;;;;;;;48.10;29.50;;;205.40;2252.80;;;;;;5026172;28;20112;-80
2022/12/26 02:14:42;;;;;;;46.72;27.25;;;205.50;2252.80;;;;;;5030529;28;20083;-90
2022/12/26 02:17:07;;;;;;;45.72;27.17;;;205.50;2252.80;;;;;;5024838;28;20030;-81
2022/12/26 02:19:33;;;;;;;;;;;205.50;2252.80;;;;;;5024570;28;20060;-81
2022/12/26 02:22:26;;;;;;;40.47;24.42;;;205.50;2252.80;;;;;;5026367;28;19908;-80
2022/12/26 02:25:20;;;;;;;41.65;25.88;;;205.50;2252.80;;;;;;5040873;28;20032;-81
2022/12/26 02:28:30;;;;;;;40.63;24.15;;;205.50;2252.80;;;;;;5029149;28;20052;-80
2022/12/26 02:31:06;;;;;;;40.00;23.25;;;205.60;2252.80;;;;;;5045214;28;20025;-80
2022/12/26 02:33:54;;;;;;;41.95;25.25;;;205.40;2252.80;;;;;;5018712;28;20030;-80
2022/12/26 02:36:29;;;;;;;39.97;24.15;;;205.30;2252.80;;;;;;5041187;28;20120;-81
2022/12/26 02:39:07;;;;;;;37.85;22.50;;;205.20;2252.80;;;;;;5035620;28;20061;-80
2022/12/26 02:41:48;;;;;;;44.13;25.30;;;205.20;2252.80;;;;;;5027154;28;20038;-81
2022/12/26 02:47:54;;;;;;;41.50;24.85;;;205.30;2252.80;;;;;;5025432;28;20079;-81
2022/12/26 03:14:11;;;;;;;40.47;25.63;;;205.30;2252.80;;;;;;4921505;29;20119;-81
2022/12/26 03:19:26;;;;;;;40.40;23.77;;;205.40;2252.80;;;;;;4924563;29;20047;-81
2022/12/26 03:21:52;;;;;;;38.97;23.75;;;205.40;2252.80;;;;;;4923308;29;20070;-80
2022/12/26 03:24:19;;;;;;;48.25;25.83;;;205.40;2252.80;;;;;;4908336;29;20044;-80
2022/12/26 03:26:52;;;;;;;40.78;24.42;;;205.30;2252.80;;;;;;4925735;28;20074;-81
2022/12/26 03:32:08;;;;;;;48.92;27.65;;;205.50;2252.80;;;;;;4959928;28;20054;-81
2022/12/26 03:34:40;;;;;;;38.95;23.52;;;205.70;2252.80;;;;;;5016771;28;20497;-81
2022/12/26 03:37:38;;;;;;;41.90;23.25;;;205.70;2252.80;;;;;;5023710;28;20479;-81
2022/12/26 04:44:24;;;;;;;35.97;22.65;;;205.10;2252.80;;;;;;4981599;28;20491;-81
2022/12/26 04:46:52;;;;;;;43.55;25.00;;;205.10;2252.80;;;;;;4980914;28;20038;-80
2022/12/26 04:52:07;;;;;;;37.08;22.40;;;205.20;2252.80;;;;;;4986370;28;20037;-81
2022/12/26 04:54:33;;;;;;;39.63;24.25;;;205.20;2252.80;;;;;;5005604;28;20050;-82
2022/12/26 04:56:59;;;;;;;;;;;205.20;2252.80;;;;;;5026984;28;20095;-80
2022/12/26 04:59:25;;;;;;;34.28;20.95;;;205.10;2252.80;;;;;;5038323;28;19928;-80
2022/12/26 05:10:07;;;;;;;40.50;23.95;;;205.20;2252.80;;;;;;5030393;28;20036;-80
2022/12/26 05:12:33;;;;;;;40.88;23.40;;;205.20;2252.80;;;;;;5025497;28;20049;-80
2022/12/26 05:14:59;;;;;;;39.38;22.38;;;205.20;2252.80;;;;;;5025722;28;20120;-81
2022/12/26 05:28:41;;;;;;;34.53;20.75;;;205.10;2252.80;;;;;;5027920;28;20032;-81
2022/12/26 05:31:16;;;;;;;35.40;22.20;;;205.10;2252.80;;;;;;5024036;28;20034;-80
2022/12/26 05:36:47;;;;;;;39.70;21.83;;;205.10;2252.80;;;;;;5032271;28;20047;-80
2022/12/26 05:39:13;;;;;;;35.47;20.80;;;205.10;2252.80;;;;;;5039103;28;20048;-81
2022/12/26 05:41:39;;;;;;;;;;;205.20;2252.80;;;;;;5021668;28;20030;-80
2022/12/26 05:44:05;;;;;;;37.83;20.42;;;205.20;2252.80;;;;;;5033887;28;20328;-81
2022/12/26 05:46:32;;;;;;;33.17;21.60;;;205.10;2252.80;;;;;;5014868;28;20018;-79
2022/12/26 05:48:57;;;;;;;37.30;21.13;;;205.10;2252.80;;;;;;5025297;28;20021;-80
2022/12/26 05:51:23;;;;;;;;;;;205.20;2252.80;;;;;;5017680;28;20033;-79
2022/12/26 05:53:50;;;;;;;32.92;19.20;;;205.20;2252.80;;;;;;5037714;28;19928;-79
2022/12/26 05:56:17;;;;;;;30.63;19.88;;;205.20;2252.80;;;;;;5019970;28;20013;-78
2022/12/26 05:58:44;;;;;;;36.42;20.88;;;205.20;2252.80;;;;;;5027582;28;20478;-80
2022/12/26 06:01:12;;;;;;;40.13;20.30;;;205.40;2252.80;;;;;;5029639;28;20147;-79
2022/12/26 06:03:40;;;;;;;37.95;20.63;;;205.40;2252.80;;;;;;5024284;28;20025;-80
2022/12/26 06:06:06;;;;;;;39.40;22.45;;;205.30;2252.80;;;;;;5023529;28;20022;-82
2022/12/26 06:08:32;;;;;;;;;;;205.20;2252.80;;;;;;5033235;28;20024;-79
2022/12/26 06:10:58;;;;;;;38.88;22.27;;;205.10;2252.80;;;;;;5020494;28;19905;-81
2022/12/26 06:13:23;;;;;;;;;;;205.10;2252.80;;;;;;5016172;28;20033;-80
2022/12/26 06:15:49;;;;;;;33.47;20.63;;;205.00;2252.80;;;;;;5023944;28;19909;-80
2022/12/26 06:18:15;;;;;;;34.80;21.17;;;205.10;2252.80;;;;;;5021255;28;20037;-80
2022/12/26 06:20:40;;;;;;;;;;;205.20;2252.80;;;;;;5018169;28;20466;-80
2022/12/26 06:23:06;;;;;;;32.47;20.08;;;205.20;2252.80;;;;;;5022133;28;19916;-80
2022/12/26 06:25:32;;;;;;;;;;;205.20;2252.80;;;;;;5022681;28;20470;-80
2022/12/26 06:27:57;;;;;;;34.75;21.23;;;205.30;2252.80;;;;;;5019460;28;20357;-81
2022/12/26 06:30:23;;;;;;;;;;;205.20;2252.80;;;;;;5023897;28;20041;-80
2022/12/26 06:32:48;;;;;;;35.58;21.73;;;205.20;2252.80;;;;;;5024261;28;19917;-79
2022/12/26 06:35:14;;;;;;;;;;;205.20;2252.80;;;;;;5021511;28;20104;-79
2022/12/26 06:37:40;;;;;;;35.28;20.85;;;205.10;2252.80;;;;;;5027946;28;19917;-78
2022/12/26 06:40:06;;;;;;;;;;;205.10;2252.80;;;;;;5033864;28;20037;-79
2022/12/26 06:42:31;;;;;;;37.22;21.33;;;205.10;2252.80;;;;;;5025820;28;19912;-80
2022/12/26 06:44:57;;;;;;;;;;;205.10;2252.80;;;;;;5022781;28;20064;-80
2022/12/26 06:47:23;;;;;;;37.67;21.13;;;205.10;2252.80;;;;;;5027913;28;19905;-80
2022/12/26 06:49:48;;;;;;;;;;;205.10;2252.80;;;;;;5021055;28;20030;-80
2022/12/26 06:52:14;;;;;;;33.80;20.45;;;205.10;2252.80;;;;;;5031033;28;19909;-81
2022/12/26 06:54:40;;;;;;;;;;;205.10;2252.80;;;;;;5018763;28;20046;-86
2022/12/26 06:57:05;;;;;;;37.33;19.65;;;205.10;2252.80;;;;;;5026125;28;19921;-78
2022/12/26 06:59:31;;;;;;;;;;;205.10;2252.80;;;;;;5026039;28;20033;-83
2022/12/26 07:01:57;;;;;;;36.30;17.63;;;205.20;2252.80;;;;;;5023345;28;20350;-84
2022/12/26 07:04:23;;;;;;;;;;;205.20;2252.80;;;;;;5027112;28;20028;-81
2022/12/26 07:06:49;;;;;;;37.33;21.73;;;205.20;2252.80;;;;;;5016590;28;19984;-82
2022/12/26 07:09:16;;;;;;;;;;;205.20;2252.80;;;;;;5031790;28;20060;-79
2022/12/26 07:11:44;;;;;;;30.17;18.35;;;205.20;2252.80;;;;;;5042408;28;19912;-80
2022/12/26 07:14:10;;;;;;;38.03;22.08;;;205.10;2252.80;;;;;;5018608;28;20037;-78
2022/12/26 07:16:37;;;;;;;33.97;20.20;;;205.10;2252.80;;;;;;5030243;28;20492;-90
2022/12/26 07:19:04;;;;;;;31.20;18.77;;;205.20;2252.80;;;;;;5022649;28;20037;-81
2022/12/26 07:21:30;;;;;;;35.80;20.52;;;205.20;2252.80;;;;;;5027935;28;20025;-85
2022/12/26 07:23:56;;;;;;;33.92;19.75;;;205.30;2252.80;;;;;;5023965;28;20056;-88
2022/12/26 07:26:22;;;;;;;;;;;205.30;2252.80;;;;;;5023320;28;20112;-81
2022/12/26 07:28:51;;;;;;;39.03;19.37;;;205.30;2252.80;;;;;;5029672;28;19905;-82
2022/12/26 07:31:18;;;;;;;32.58;20.45;;;205.30;2252.80;;;;;;5028413;28;20325;-86
2022/12/26 07:33:49;;;;;;;35.55;18.98;;;205.30;2252.80;;;;;;5038803;28;20026;-90
2022/12/26 07:36:15;;;;;;;38.00;20.38;;;205.40;2252.80;;;;;;5026314;28;20021;-84
2022/12/26 07:38:40;;;;;;;;;;;205.50;2252.80;;;;;;5023862;28;20559;-84
2022/12/26 07:43:50;;;;;;;40.35;20.65;;;205.40;2252.80;;;;;;5027895;28;20060;-87
2022/12/26 07:46:16;;;;;;;;;;;205.50;2252.80;;;;;;5025782;28;20030;-83
2022/12/26 07:48:42;;;;;;;37.53;19.23;;;205.40;2252.80;;;;;;5022084;28;19905;-83
2022/12/26 07:51:07;;;;;;;;;;;205.40;2252.80;;;;;;5020439;28;20125;-82
2022/12/26 07:53:33;;;;;;;30.70;19.20;;;205.40;2252.80;;;;;;5060969;28;20365;-84
2022/12/26 07:55:58;;;;;;;;;;;205.40;2252.80;;;;;;5023139;28;20029;-81
2022/12/26 07:58:24;;;;;;;33.65;18.50;;;205.50;2252.80;;;;;;5031977;28;19913;-90
2022/12/26 08:00:50;;;;;;;;;;;205.50;2252.80;;;;;;5021507;28;20477;-82
2022/12/26 08:03:16;;;;;;;36.38;19.10;;;205.50;2252.80;;;;;;5055217;28;19906;-88
2022/12/26 08:05:45;;;;;;;;;;;205.50;2252.80;;;;;;5025293;28;20473;-87
2022/12/26 08:08:11;;;;;;;34.92;19.45;;;205.50;2252.80;;;;;;5018618;28;20025;-93
2022/12/26 08:10:36;;;;;;;;;;;205.50;2252.80;;;;;;5053876;28;20061;-89
2022/12/26 08:13:02;;;;;;;28.08;17.30;;;205.50;2252.80;;;;;;5059304;28;19905;-82
2022/12/26 08:15:27;;;;;;;;;;;205.50;2252.80;;;;;;5026305;28;20018;-87
2022/12/26 08:17:53;;;;;;;31.10;19.02;;;205.60;2252.80;;;;;;5054005;28;20527;-86
2022/12/26 08:20:19;;;;;;;;;;;205.70;2252.80;;;;;;5027425;28;20025;-80
2022/12/26 08:22:44;;;;;;;34.60;17.98;;;230.40;2252.80;;;;;;5048662;28;20005;-85
2022/12/26 08:25:10;;;;;;;;;;;230.40;2252.80;;;;;;5022659;28;20080;-85
2022/12/26 08:27:36;;;;;;;33.50;19.17;;;230.50;2252.80;;;;;;5023405;28;20358;-86
2022/12/26 08:30:02;;;;;;;;;;;230.60;2252.80;;;;;;5020101;28;20049;-88
2022/12/26 08:32:27;;;;;;;32.47;18.88;;;230.60;2252.80;;;;;;5059093;28;20372;-86
2022/12/26 08:34:53;;;;;;;31.00;19.27;;;230.70;2252.80;;;;;;5031029;28;20045;-84
2022/12/26 08:37:19;;;;;;;;;;;230.70;2252.80;;;;;;5034499;28;20048;-85
2022/12/26 08:39:44;;;;;;;35.00;19.45;;;230.70;2252.80;;;;;;5029288;28;19909;-81
2022/12/26 08:42:10;;;;;;;35.78;20.45;;;230.70;2252.80;;;;;;5023125;28;20025;-83
2022/12/26 08:44:36;;;;;;;34.30;19.85;;;230.80;2252.80;;;;;;5025491;28;20397;-80
2022/12/26 08:47:01;;;;;;;;;;;230.90;2252.80;;;;;;5022529;28;20021;-83
2022/12/26 08:49:27;;;;;;;35.25;19.55;;;231.00;2252.80;;;;;;5035069;28;19913;-87
2022/12/26 08:51:53;;;;;;;;;;;231.10;2252.80;;;;;;5032681;28;20064;-87
2022/12/26 08:54:18;;;;;;;46.60;20.83;;;231.20;2252.80;;;;;;5050185;28;19929;-79
2022/12/26 08:56:44;;;;;;;;;;;231.20;2252.80;;;;;;5019384;28;20032;-82
2022/12/26 08:59:10;;;;;;;36.45;19.73;;;231.20;2252.80;;;;;;5058613;28;20346;-78
2022/12/26 09:01:37;;;;;;;33.13;20.30;;;231.20;2252.80;;;;;;5023931;28;20014;-82
2022/12/26 09:04:05;;;;;;;33.17;19.17;;;231.30;2252.80;;;;;;5022231;28;20030;-83
2022/12/26 09:06:32;;;;;;;36.28;20.20;;;231.30;2252.80;;;;;;5031257;28;20032;-82
2022/12/26 09:09:00;;;;;;;42.53;23.63;;;231.20;2252.80;;;;;;5029510;28;20025;-78
2022/12/26 09:11:26;;;;;;;39.78;20.75;;;256.00;2252.80;;;;;;5027621;28;20026;-79
2022/12/26 09:13:52;;;;;;;33.83;20.63;;;231.30;2252.80;;;;;;5026466;28;20026;-78
2022/12/26 09:16:23;;;;;;;33.20;18.80;;;256.10;2252.80;;;;;;5029479;28;20033;-78
2022/12/26 09:18:53;;;;;;;35.30;21.20;;;256.20;2252.80;;;;;;5021923;28;20069;-80
2022/12/26 09:21:19;;;;;;;35.55;21.83;;;256.40;2252.80;;;;;;5024307;28;20076;-79
2022/12/26 09:23:44;;;;;;;34.15;19.60;;;256.50;2252.80;;;;;;5053865;28;20459;-80
2022/12/26 09:26:11;;;;;;;;;;;256.70;2252.80;;;;;;5025560;28;20030;-82
2022/12/26 09:28:38;;;;;;;31.95;18.80;;;256.80;2252.80;;;;;;5055252;28;19985;-81
2022/12/26 09:31:18;;;;;;;31.25;17.40;;;256.80;2252.80;;;;;;5025185;28;20034;-80
2022/12/26 09:33:46;;;;;;;36.17;21.23;;;281.70;2278.40;;;;;;5041965;28;20131;-83
2022/12/26 09:36:17;;;;;;;32.67;20.80;;;281.90;2278.40;;;;;;5020636;28;20118;-78
2022/12/26 09:38:45;;;;;;;31.95;20.02;;;282.00;2278.40;;;;;;5031686;28;20065;-78
2022/12/26 09:41:38;;;;;;;32.03;18.15;;;282.20;2278.40;;;;;;5015605;28;20076;-79
2022/12/26 09:44:23;;;;;;;27.88;17.52;;;282.20;2278.40;;;;;;5030113;28;20030;-79
2022/12/26 09:47:13;;;;;;;39.92;21.85;;;282.40;2278.40;;;;;;5038645;28;20029;-80
2022/12/26 09:49:56;;;;;;;34.42;19.58;;;282.50;2278.40;;;;;;5039552;28;20025;-79
2022/12/26 09:52:47;;;;;;;29.90;20.25;;;307.20;2304.00;;;;;;5027552;28;20119;-78
2022/12/26 09:55:18;;;;;;;34.88;20.23;;;307.30;2304.00;;;;;;5052344;28;20280;-78
2022/12/26 09:57:48;;;;;;;31.10;21.00;;;307.40;2304.00;;;;;;5023547;28;20029;-76
2022/12/26 10:00:21;;;;;;;33.22;20.25;;;307.80;2304.00;;;;;;5026496;28;20022;-76
2022/12/26 10:02:51;;;;;;;33.60;20.88;;;307.90;2304.00;;;;;;5024696;28;20030;-83
2022/12/26 10:05:17;;;;;;;32.35;19.67;;;307.80;2304.00;;;;;;5022565;28;20083;-88
2022/12/26 10:07:48;;;;;;;33.15;20.08;;;307.90;2304.00;;;;;;5029430;28;20482;-84
2022/12/26 10:10:26;;;;;;;39.10;21.75;;;308.00;2304.00;;;;;;5026591;28;20092;-88
2022/12/26 10:13:05;;;;;;;33.60;20.30;;;308.10;2304.00;;;;;;5024560;28;20096;-88
2022/12/26 10:15:34;;;;;;;38.60;20.27;;;332.90;2329.60;;;;;;5027335;28;20025;-89
2022/12/26 10:18:39;;;;;;;38.63;22.13;;;333.00;2329.60;;;;;;5037091;28;20044;-83
2022/12/26 10:21:10;;;;;;;36.63;21.80;;;333.00;2329.60;;;;;;5056752;28;20116;-85
2022/12/26 10:23:57;;;;;;;34.33;20.88;;;333.10;2329.60;;;;;;5029156;28;20048;-84
2022/12/26 10:26:30;;;;;;;22.02;14.43;;;333.00;2329.60;;;;;;5028851;28;20044;-83
2022/12/26 10:29:06;;;;;;;36.17;22.55;;;332.80;2329.60;;;;;;5025016;28;20033;-83
2022/12/26 10:31:46;;;;;;;44.22;22.65;;;308.00;2304.00;;;;;;5025791;28;20030;-83
2022/12/26 10:34:24;;;;;;;35.30;22.15;;;307.90;2304.00;;;;;;5026885;28;20056;-83
2022/12/26 10:37:02;;;;;;;36.10;21.60;;;307.40;2304.00;;;;;;5041149;28;20025;-82
2022/12/26 10:39:42;;;;;;;35.08;22.27;;;307.40;2304.00;;;;;;5030973;28;20036;-82
2022/12/26 10:42:17;;;;;;;36.85;23.10;;;307.30;2304.00;;;;;;5021938;28;20022;-82
2022/12/26 10:44:42;;;;;;;41.72;24.52;;;307.20;2304.00;;;;;;5039428;28;20025;-84
2022/12/26 10:47:11;;;;;;;36.50;24.52;;;282.50;2278.40;;;;;;5026001;28;20025;-83
2022/12/26 10:49:37;;;;;;;34.38;23.75;;;282.40;2278.40;;;;;;5028405;28;20021;-83
2022/12/26 10:52:03;;;;;;;35.20;22.38;;;282.40;2278.40;;;;;;5024322;28;20052;-83
2022/12/26 10:54:30;;;;;;;38.78;23.88;;;282.30;2278.40;;;;;;5021370;28;20061;-83
2022/12/26 10:56:58;;;;;;;41.63;23.02;;;282.40;2278.40;;;;;;5017053;28;20030;-84
2022/12/26 10:59:42;;;;;;;40.42;23.52;;;282.50;2278.40;;;;;;5022332;28;20021;-83
2022/12/26 11:02:23;;;;;;;38.70;24.52;;;282.50;2278.40;;;;;;5022799;28;20021;-83
2022/12/26 11:05:08;;;;;;;41.85;24.55;;;282.50;2278.40;;;;;;5025863;28;20037;-84
2022/12/26 11:07:37;;;;;;;44.72;24.02;;;282.50;2278.40;;;;;;5020961;28;20430;-82
2022/12/26 11:10:15;;;;;;;41.83;25.85;;;307.20;2304.00;;;;;;5019235;28;20021;-85
2022/12/26 11:12:59;;;;;;;37.95;23.55;;;307.30;2304.00;;;;;;5018274;28;20045;-83
2022/12/26 11:15:31;;;;;;;33.10;21.90;;;307.20;2304.00;;;;;;5023131;28;20490;-88
2022/12/26 11:18:06;;;;;;;35.95;22.27;;;307.20;2304.00;;;;;;5029082;28;20441;-85
2022/12/26 11:20:32;;;;;;;43.03;25.40;;;307.20;2304.00;;;;;;5034746;28;20504;-80
2022/12/26 11:23:21;;;;;;;43.03;24.48;;;307.20;2304.00;;;;;;5021121;28;20033;-78
2022/12/26 11:26:08;;;;;;;49.65;27.38;;;282.50;2278.40;;;;;;5025160;28;20033;-80
2022/12/26 11:28:35;;;;;;;50.22;25.55;;;282.50;2278.40;;;;;;5010998;28;20080;-78
2022/12/26 11:31:05;;;;;;;38.28;24.33;;;282.40;2278.40;;;;;;5022271;28;20022;-91
2022/12/26 11:33:45;;;;;;;35.13;21.75;;;282.40;2278.40;;;;;;5018436;28;20033;-82
2022/12/26 11:36:24;;;;;;;34.53;22.45;;;282.40;2278.40;;;;;;5020569;28;20169;-83
2022/12/26 11:39:01;;;;;;;40.60;25.05;;;282.50;2278.40;;;;;;5015662;28;20545;-82
2022/12/26 11:41:35;;;;;;;43.53;25.77;;;282.20;2278.40;;;;;;5023814;28;20024;-90
2022/12/26 11:44:10;;;;;;;41.67;22.70;;;282.40;2278.40;;;;;;5039433;28;20034;-81
2022/12/26 11:46:50;;;;;;;38.15;24.13;;;282.30;2278.40;;;;;;5039749;28;20022;-81
2022/12/26 11:49:34;;;;;;;43.20;26.33;;;282.40;2278.40;;;;;;5018602;28;20053;-85
2022/12/26 11:52:22;;;;;;;39.13;24.65;;;307.20;2304.00;;;;;;5027307;28;20030;-84
2022/12/26 11:54:49;;;;;;;40.63;22.75;;;307.20;2304.00;;;;;;5022299;28;20060;-78
2022/12/26 11:57:27;;;;;;;40.50;24.60;;;307.30;2304.00;;;;;;5020758;28;20095;-81
2022/12/26 12:00:12;;;;;;;38.45;24.50;;;307.40;2304.00;;;;;;5017909;28;20018;-78
2022/12/26 12:02:39;;;;;;;37.58;22.80;;;307.40;2304.00;;;;;;5028399;28;20029;-82
2022/12/26 12:05:14;;;;;;;42.10;25.90;;;307.50;2304.00;;;;;;5020688;28;20025;-81
2022/12/26 12:07:46;;;;;;;40.65;26.85;;;307.60;2304.00;;;;;;5032689;28;20489;-81
2022/12/26 12:10:33;;;;;;;36.83;24.13;;;307.60;2304.00;;;;;;5025420;28;20030;-82
2022/12/26 12:13:08;;;;;;;45.13;26.20;;;307.60;2304.00;;;;;;5030506;28;20070;-90
2022/12/26 12:16:05;;;;;;;53.13;26.67;;;307.60;2304.00;;;;;;5024005;28;20022;-88
2022/12/26 12:18:34;;;;;;;41.95;25.92;;;307.70;2304.00;;;;;;5028243;28;20037;-86
2022/12/26 12:21:10;;;;;;;43.85;28.38;;;307.60;2304.00;;;;;;5029816;28;20030;-88
2022/12/26 12:23:46;;;;;;;;;;;307.60;2304.00;;;;;;5029604;28;20034;-84
2022/12/26 12:26:29;;;;;;;51.72;32.50;;;307.60;2304.00;;;;;;5058331;28;19972;-86
2022/12/26 12:29:13;;;;;;;66.25;34.67;;;307.60;2304.00;;;;;;5029164;28;20024;-89
2022/12/26 12:32:07;;;;;;;64.95;35.42;;;307.70;2304.00;;;;;;5028434;28;20026;-86
2022/12/26 12:35:01;;;;;;;67.43;38.97;;;307.80;2304.00;;;;;;5031321;28;20096;-88
2022/12/26 12:37:45;;;;;;;57.67;32.95;;;307.80;2304.00;;;;;;5027219;28;20029;-83
2022/12/26 12:40:36;;;;;;;57.88;30.50;;;307.80;2304.00;;;;;;5038336;28;20113;-86
2022/12/26 12:43:26;;;;;;;54.92;31.15;;;307.90;2304.00;;;;;;5021201;28;20025;-86
2022/12/26 12:46:20;;;;;;;51.13;32.00;;;307.90;2304.00;;;;;;5027371;28;20025;-87
2022/12/26 12:49:07;;;;;;;48.67;29.17;;;307.90;2304.00;;;;;;5059123;28;20108;-87
2022/12/26 12:51:33;;;;;;;56.63;31.25;;;308.00;2304.00;;;;;;5025218;28;20470;-87
2022/12/26 12:54:21;;;;;;;48.92;29.80;;;308.00;2304.00;;;;;;5029206;28;20057;-84
2022/12/26 12:56:46;;;;;;;;;;;308.10;2304.00;;;;;;5031480;28;20025;-89
2022/12/26 12:59:18;;;;;;;46.88;29.38;;;308.10;2304.00;;;;;;5030788;28;19914;-85
2022/12/26 13:01:48;;;;;;;50.25;29.27;;;308.10;2304.00;;;;;;5042632;28;20025;-89
2022/12/26 13:04:19;;;;;;;52.75;31.48;;;308.10;2304.00;;;;;;5033611;28;20112;-84
2022/12/26 13:06:58;;;;;;;55.60;31.75;;;308.10;2304.00;;;;;;5025974;28;20029;-88
2022/12/26 13:09:30;;;;;;;55.88;32.08;;;332.80;2329.60;;;;;;5029440;28;20033;-85
2022/12/26 13:12:06;;;;;;;49.78;32.60;;;332.80;2329.60;;;;;;5053485;28;20022;-89
2022/12/26 13:14:55;;;;;;;50.05;31.25;;;332.80;2329.60;;;;;;5052597;28;20033;-89
2022/12/26 13:17:28;;;;;;;47.15;29.45;;;332.90;2329.60;;;;;;5025309;28;20486;-89
2022/12/26 13:20:06;;;;;;;51.42;32.42;;;332.90;2329.60;;;;;;5037893;28;20021;-90
2022/12/26 13:25:35;;;;;;;49.40;28.52;;;332.90;2329.60;;;;;;5043772;28;20057;-81
2022/12/26 13:28:08;;;;;;;47.38;28.25;;;333.00;2329.60;;;;;;5047530;28;20044;-81
2022/12/26 13:30:36;;;;;;;42.67;26.85;;;332.90;2329.60;;;;;;5026155;28;20034;-86
2022/12/26 13:33:03;;;;;;;48.13;29.67;;;333.00;2329.60;;;;;;5030604;28;20026;-84
2022/12/26 13:35:55;;;;;;;45.17;27.60;;;333.00;2329.60;;;;;;5027966;28;20122;-93
2022/12/26 13:38:23;;;;;;;52.13;28.73;;;333.10;2329.60;;;;;;5029383;28;20056;-87
2022/12/26 13:44:25;;;;;;;;;;;333.20;2329.60;;;;;;5023991;28;20156;-80
2022/12/26 13:46:50;;;;;;;42.45;26.58;;;333.30;2329.60;;;;;;4985521;28;20273;-89
2022/12/26 13:49:35;;;;;;;40.15;26.02;;;333.30;2329.60;;;;;;4962495;28;20037;-89
2022/12/26 13:52:10;;;;;;;39.13;25.05;;;333.20;2329.60;;;;;;4951603;28;20062;-79
2022/12/26 13:54:46;;;;;;;35.80;23.42;;;333.30;2329.60;;;;;;4986674;28;20049;-88
2022/12/26 13:57:43;;;;;;;40.10;26.52;;;333.30;2329.60;;;;;;4985646;28;20058;-82
2022/12/26 14:00:22;;;;;;;43.55;27.02;;;333.30;2329.60;;;;;;4944910;28;20043;-81
2022/12/26 14:03:02;;;;;;;42.85;26.40;;;333.40;2329.60;;;;;;4954881;28;20130;-80
2022/12/26 14:05:42;;;;;;;45.55;26.77;;;333.40;2329.60;;;;;;4985526;28;20079;-81
2022/12/26 14:08:20;;;;;;;41.33;27.73;;;333.40;2329.60;;;;;;4985156;28;20035;-83
2022/12/26 14:11:30;;;;;;;44.75;28.23;;;333.40;2329.60;;;;;;4983069;28;20541;-83
2022/12/26 14:14:15;;;;;;;46.22;27.30;;;333.50;2329.60;;;;;;4946726;28;20078;-79
2022/12/26 14:16:52;;;;;;;50.42;27.63;;;333.40;2329.60;;;;;;4983639;28;20036;-82
2022/12/26 14:19:32;;;;;;;51.95;30.10;;;333.40;2329.60;;;;;;5039030;28;20140;-84
2022/12/26 14:22:26;;;;;;;43.80;28.02;;;333.40;2329.60;;;;;;5032610;28;20037;-79
2022/12/26 14:25:31;;;;;;;46.42;28.23;;;333.40;2329.60;;;;;;5029867;28;20509;-85
2022/12/26 14:28:21;;;;;;;42.10;26.98;;;333.40;2329.60;;;;;;4969490;28;20137;-83
2022/12/26 14:31:21;;;;;;;41.05;27.65;;;333.40;2329.60;;;;;;4974894;28;20038;-83
2022/12/26 14:34:18;;;;;;;46.65;27.67;;;333.30;2329.60;;;;;;4976364;28;20057;-85
2022/12/26 14:37:11;;;;;;;51.38;29.98;;;333.30;2329.60;;;;;;4971926;28;20038;-81
2022/12/26 14:39:57;;;;;;;47.20;28.33;;;333.30;2329.60;;;;;;4982961;28;20101;-83
2022/12/26 14:45:31;;;;;;;49.55;29.73;;;333.20;2329.60;;;;;;4985362;28;20100;-83
2022/12/26 14:47:57;;;;;;;52.33;29.58;;;333.20;2329.60;;;;;;4981549;28;20117;-84
2022/12/26 14:50:36;;;;;;;46.83;29.25;;;333.10;2329.60;;;;;;4989677;28;20105;-81
2022/12/26 14:53:23;;;;;;;52.63;31.65;;;333.10;2329.60;;;;;;4975502;28;20026;-79
2022/12/26 14:56:01;;;;;;;49.45;32.13;;;333.00;2329.60;;;;;;4983796;28;20084;-83
2022/12/26 14:58:44;;;;;;;45.38;28.65;;;333.00;2329.60;;;;;;4983108;28;20495;-81